createdAt,value
2023-01-11T00:02:09.247Z,-9.59
2023-01-11T00:04:41.646Z,-9.57
2023-01-11T00:07:13.535Z,-9.57
2023-01-11T00:09:47.138Z,-9.56
2023-01-11T00:12:19.217Z,-9.55
2023-01-11T00:14:51.285Z,-9.54
2023-01-11T00:17:23.255Z,-9.54
2023-01-11T00:19:55.296Z,-9.51
2023-01-11T00:22:27.380Z,-9.44
2023-01-11T00:24:59.405Z,-9.45
2023-01-11T00:27:33.103Z,-9.41
2023-01-11T00:30:05.401Z,-9.40
2023-01-11T00:32:37.497Z,-9.34
2023-01-11T00:35:09.970Z,-9.33
2023-01-11T00:37:42.053Z,-9.24
2023-01-11T00:40:14.270Z,-9.24
2023-01-11T00:43:03.840Z,-9.32
2023-01-11T00:45:53.657Z,-9.28
2023-01-11T00:48:25.595Z,-9.35
2023-01-11T00:50:59.621Z,-9.32
2023-01-11T00:53:31.619Z,-9.31
2023-01-11T00:56:03.931Z,-9.34
2023-01-11T00:58:35.936Z,-9.24
2023-01-11T01:01:09.104Z,-9.33
2023-01-11T01:03:41.084Z,-9.31
2023-01-11T01:06:12.965Z,-9.28
2023-01-11T01:08:45.331Z,-9.29
2023-01-11T01:11:17.348Z,-9.29
2023-01-11T01:14:06.843Z,-9.28
2023-01-11T01:16:39.121Z,-9.25
2023-01-11T01:19:11.355Z,-9.26
2023-01-11T01:21:43.643Z,-9.20
2023-01-11T01:24:15.928Z,-9.21
2023-01-11T01:26:48.304Z,-9.21
2023-01-11T01:29:20.689Z,-9.20
2023-01-11T01:31:52.832Z,-9.21
2023-01-11T01:34:24.824Z,-9.22
2023-01-11T01:36:57.369Z,-9.17
2023-01-11T01:39:29.796Z,-9.15
2023-01-11T01:42:02.350Z,-9.12
2023-01-11T01:44:57.157Z,-9.19
2023-01-11T01:47:35.097Z,-9.19
2023-01-11T01:50:10.028Z,-9.17
2023-01-11T01:52:43.733Z,-9.16
2023-01-11T01:55:18.925Z,-9.14
2023-01-11T01:57:52.141Z,-9.12
2023-01-11T02:00:24.164Z,-9.10
2023-01-11T02:02:58.722Z,-9.11
2023-01-11T02:05:31.113Z,-9.07
2023-01-11T02:08:05.950Z,-9.04
2023-01-11T02:10:39.007Z,-9.06
2023-01-11T02:13:14.563Z,-9.02
2023-01-11T02:15:47.016Z,-9.01
2023-01-11T02:18:20.684Z,-8.93
2023-01-11T02:20:58.200Z,-9.02
2023-01-11T02:24:00.665Z,-9.03
2023-01-11T02:26:35.747Z,-9.06
2023-01-11T02:29:25.472Z,-9.00
2023-01-11T02:32:22.991Z,-9.03
2023-01-11T02:35:09.462Z,-9.06
2023-01-11T02:37:53.238Z,-9.08
2023-01-11T02:40:40.334Z,-9.08
2023-01-11T02:43:38.700Z,-9.10
2023-01-11T02:46:19.485Z,-9.09
2023-01-11T02:48:54.852Z,-9.05
2023-01-11T02:51:35.558Z,-9.05
2023-01-11T02:54:12.960Z,-9.04
2023-01-11T02:56:48.149Z,-8.97
2023-01-11T02:59:23.385Z,-8.99
2023-01-11T03:01:56.173Z,-9.00
2023-01-11T03:04:33.930Z,-9.00
2023-01-11T03:07:18.022Z,-8.97
2023-01-11T03:10:10.877Z,-8.94
2023-01-11T03:13:10.860Z,-8.91
2023-01-11T03:16:02.086Z,-8.89
2023-01-11T03:18:42.932Z,-8.90
2023-01-11T03:21:35.828Z,-8.89
2023-01-11T03:24:31.894Z,-8.89
2023-01-11T03:27:09.711Z,-8.86
2023-01-11T03:29:44.768Z,-8.88
2023-01-11T03:32:28.596Z,-8.88
2023-01-11T03:35:01.552Z,-8.89
2023-01-11T03:37:45.400Z,-8.81
2023-01-11T03:40:20.538Z,-8.89
2023-01-11T03:43:13.960Z,-8.90
2023-01-11T03:45:51.827Z,-8.93
2023-01-11T03:48:27.173Z,-8.86
2023-01-11T03:51:00.967Z,-8.86
2023-01-11T03:53:35.848Z,-8.93
2023-01-11T03:56:11.376Z,-8.93
2023-01-11T03:58:43.859Z,-8.92
2023-01-11T04:01:16.464Z,-8.96
2023-01-11T04:03:48.509Z,-8.97
2023-01-11T04:06:21.308Z,-8.96
2023-01-11T04:08:53.662Z,-8.99
2023-01-11T04:11:26.392Z,-9.00
2023-01-11T04:13:58.787Z,-8.98
2023-01-11T04:16:31.512Z,-8.91
2023-01-11T04:19:03.545Z,-8.97
2023-01-11T04:21:35.488Z,-8.90
2023-01-11T04:24:08.210Z,-8.94
2023-01-11T04:26:40.771Z,-8.91
2023-01-11T04:29:12.966Z,-8.90
2023-01-11T04:31:46.169Z,-8.88
2023-01-11T04:34:17.771Z,-8.84
2023-01-11T04:36:49.528Z,-8.81
2023-01-11T04:39:21.728Z,-8.94
2023-01-11T04:42:11.554Z,-8.88
2023-01-11T04:44:44.310Z,-8.98
2023-01-11T04:47:19.213Z,-8.98
2023-01-11T04:49:52.430Z,-9.05
2023-01-11T04:52:24.868Z,-9.03
2023-01-11T04:54:57.624Z,-9.10
2023-01-11T04:57:30.075Z,-9.14
2023-01-11T05:00:02.402Z,-9.16
2023-01-11T05:02:35.062Z,-9.12
2023-01-11T05:05:08.551Z,-9.19
2023-01-11T05:07:41.090Z,-9.23
2023-01-11T05:10:13.275Z,-9.24
2023-01-11T05:12:47.421Z,-9.25
2023-01-11T05:15:19.981Z,-9.27
2023-01-11T05:17:52.461Z,-9.23
2023-01-11T05:20:25.100Z,-9.20
2023-01-11T05:22:57.848Z,-9.21
2023-01-11T05:25:29.877Z,-9.23
2023-01-11T05:28:02.042Z,-9.17
2023-01-11T05:30:34.635Z,-9.15
2023-01-11T05:33:07.421Z,-9.14
2023-01-11T05:35:40.335Z,-9.08
2023-01-11T05:38:12.795Z,-8.98
2023-01-11T05:40:46.374Z,-9.02
2023-01-11T05:43:18.492Z,-8.99
2023-01-11T05:45:50.825Z,-8.84
2023-01-11T05:48:25.795Z,-8.95
2023-01-11T05:51:01.348Z,-8.97
2023-01-11T05:53:34.494Z,-8.97
2023-01-11T05:56:08.891Z,-8.99
2023-01-11T05:58:41.392Z,-8.97
2023-01-11T06:01:13.982Z,-8.96
2023-01-11T06:03:46.788Z,-8.92
2023-01-11T06:06:20.623Z,-8.83
2023-01-11T06:08:53.724Z,-8.81
2023-01-11T06:11:26.206Z,-8.73
2023-01-11T06:13:58.917Z,-8.69
2023-01-11T06:16:31.411Z,-8.62
2023-01-11T06:19:03.787Z,-8.49
2023-01-11T06:21:36.083Z,-8.53
2023-01-11T06:24:08.861Z,-8.45
2023-01-11T06:26:41.317Z,-8.36
2023-01-11T06:29:14.737Z,-8.38
2023-01-11T06:31:49.438Z,-8.34
2023-01-11T06:34:22.368Z,-8.30
2023-01-11T06:36:55.226Z,-8.28
2023-01-11T06:39:28.139Z,-8.19
2023-01-11T06:42:00.508Z,-8.13
2023-01-11T06:44:33.272Z,-8.11
2023-01-11T06:47:05.699Z,-8.09
2023-01-11T06:49:38.420Z,-7.98
2023-01-11T06:52:11.136Z,-7.98
2023-01-11T06:54:43.552Z,-7.97
2023-01-11T06:57:15.691Z,-7.91
2023-01-11T06:59:47.916Z,-7.85
2023-01-11T07:02:20.461Z,-7.76
2023-01-11T07:04:52.536Z,-7.77
2023-01-11T07:07:24.442Z,-7.72
2023-01-11T07:09:56.631Z,-7.63
2023-01-11T07:12:28.607Z,-7.63
2023-01-11T07:15:00.763Z,-7.59
2023-01-11T07:17:34.037Z,-7.52
2023-01-11T07:20:07.216Z,-7.46
2023-01-11T07:22:39.271Z,-7.36
2023-01-11T07:25:11.696Z,-7.26
2023-01-11T07:27:44.220Z,-7.33
2023-01-11T07:30:16.278Z,-7.24
2023-01-11T07:32:48.441Z,-7.16
2023-01-11T07:35:20.943Z,-7.20
2023-01-11T07:37:53.210Z,-7.23
2023-01-11T07:40:25.643Z,-7.22
2023-01-11T07:43:15.485Z,-7.15
2023-01-11T07:45:52.324Z,-7.07
2023-01-11T07:48:27.409Z,-7.07
2023-01-11T07:50:59.510Z,-7.06
2023-01-11T07:53:31.587Z,-7.02
2023-01-11T07:56:03.677Z,-6.97
2023-01-11T07:58:35.595Z,-6.94
2023-01-11T08:01:07.831Z,-6.90
2023-01-11T08:03:40.035Z,-6.84
2023-01-11T08:06:12.187Z,-6.78
2023-01-11T08:08:45.399Z,-6.78
2023-01-11T08:11:35.750Z,-6.75
2023-01-11T08:14:25.394Z,-6.74
2023-01-11T08:16:57.777Z,-6.68
2023-01-11T08:19:30.256Z,-6.65
2023-01-11T08:22:02.694Z,-6.63
2023-01-11T08:24:38.031Z,-6.64
2023-01-11T08:27:10.004Z,-6.62
2023-01-11T08:29:44.557Z,-6.61
2023-01-11T08:32:17.077Z,-6.53
2023-01-11T08:34:49.637Z,-6.46
2023-01-11T08:37:21.899Z,-6.41
2023-01-11T08:39:56.402Z,-6.33
2023-01-11T08:42:28.000Z,-6.18
2023-01-11T08:44:59.725Z,-6.03
2023-01-11T08:47:33.625Z,-6.05
2023-01-11T08:50:08.439Z,-6.04
2023-01-11T08:52:42.501Z,-6.02
2023-01-11T08:55:13.911Z,-5.96
2023-01-11T08:57:46.274Z,-5.93
2023-01-11T09:00:20.173Z,-6.02
2023-01-11T09:02:52.437Z,-6.01
2023-01-11T09:05:24.913Z,-5.96
2023-01-11T09:07:57.386Z,-5.97
2023-01-11T09:10:30.013Z,-6.04
2023-01-11T09:13:02.011Z,-6.07
2023-01-11T09:15:34.495Z,-6.07
2023-01-11T09:18:07.545Z,-6.09
2023-01-11T09:20:41.590Z,-6.07
2023-01-11T09:23:13.836Z,-5.94
2023-01-11T09:25:46.097Z,-6.05
2023-01-11T09:28:18.649Z,-6.02
2023-01-11T09:30:52.053Z,-6.07
2023-01-11T09:33:24.690Z,-6.10
2023-01-11T09:35:58.888Z,-6.17
2023-01-11T09:38:31.244Z,-6.16
2023-01-11T09:41:13.393Z,-6.16
2023-01-11T09:43:49.851Z,-6.20
2023-01-11T09:46:23.137Z,-6.22
2023-01-11T09:49:03.755Z,-6.19
2023-01-11T09:51:42.532Z,-6.20
2023-01-11T09:54:27.774Z,-6.15
2023-01-11T09:57:13.387Z,-6.04
2023-01-11T10:00:01.001Z,-5.97
2023-01-11T10:02:55.392Z,-5.96
2023-01-11T10:05:59.840Z,-5.87
2023-01-11T10:18:39.531Z,-5.72
2023-01-11T10:18:41.724Z,-5.79
2023-01-11T10:20:24.289Z,-5.78
2023-01-11T10:23:06.694Z,-5.79
2023-01-11T10:25:45.140Z,-5.78
2023-01-11T10:28:28.720Z,-5.70
2023-01-11T10:31:03.920Z,-5.69
2023-01-11T10:34:07.223Z,-5.65
2023-01-11T10:37:01.755Z,-5.64
2023-01-11T10:39:57.160Z,-5.57
2023-01-11T10:42:32.909Z,-5.56
2023-01-11T10:45:24.512Z,-5.55
2023-01-11T10:48:08.040Z,-5.47
2023-01-11T10:50:52.037Z,-5.44
2023-01-11T10:53:32.931Z,-5.47
2023-01-11T10:56:13.782Z,-5.47
2023-01-11T10:59:04.198Z,-5.46
2023-01-11T11:02:03.394Z,-5.48
2023-01-11T11:05:12.824Z,-5.48
2023-01-11T11:08:02.400Z,-5.45
2023-01-11T11:10:46.389Z,-5.50
2023-01-11T11:13:28.347Z,-5.48
2023-01-11T11:16:26.795Z,-5.39
2023-01-11T11:19:00.574Z,-5.49
2023-01-11T11:21:35.653Z,-5.56
2023-01-11T11:24:16.136Z,-5.61
2023-01-11T11:26:51.235Z,-5.60
2023-01-11T11:29:26.668Z,-5.71
2023-01-11T11:32:02.692Z,-5.73
2023-01-11T11:34:36.123Z,-5.80
2023-01-11T11:37:09.856Z,-5.85
2023-01-11T11:39:42.099Z,-5.83
2023-01-11T11:42:18.772Z,-5.73
2023-01-11T11:45:10.013Z,-5.88
2023-01-11T11:47:44.354Z,-5.92
2023-01-11T11:50:43.247Z,-5.94
2023-01-11T11:53:05.214Z,-5.97
2023-01-11T11:55:37.409Z,-5.89
2023-01-11T11:58:12.679Z,-5.94
2023-01-11T12:00:48.064Z,-5.95
2023-01-11T12:03:33.930Z,-5.87
2023-01-11T12:06:08.642Z,-5.87
2023-01-11T12:08:43.786Z,-5.85
2023-01-11T12:11:18.721Z,-5.92
2023-01-11T12:14:00.000Z,-5.93
2023-01-11T12:16:38.101Z,-5.96
2023-01-11T12:19:31.394Z,-5.92
2023-01-11T12:22:24.083Z,-6.09
2023-01-11T12:25:10.907Z,-6.14
2023-01-11T12:28:03.784Z,-6.21
2023-01-11T12:30:53.658Z,-6.25
2023-01-11T12:33:51.422Z,-6.33
2023-01-11T12:36:44.831Z,-6.31
2023-01-11T12:39:43.875Z,-6.36
2023-01-11T12:42:40.949Z,-6.41
2023-01-11T12:45:27.987Z,-6.42
2023-01-11T12:48:20.696Z,-6.46
2023-01-11T12:51:01.298Z,-6.52
2023-01-11T12:53:45.141Z,-6.55
2023-01-11T12:56:23.746Z,-6.45
2023-01-11T12:59:10.219Z,-6.42
2023-01-11T13:01:53.784Z,-6.54
2023-01-11T13:04:54.216Z,-6.56
2023-01-11T13:07:46.863Z,-6.60
2023-01-11T13:10:21.997Z,-6.64
2023-01-11T13:13:17.625Z,-6.68
2023-01-11T13:16:01.837Z,-6.69
2023-01-11T13:18:59.421Z,-6.72
2023-01-11T13:21:38.079Z,-6.69
2023-01-11T13:24:18.831Z,-6.77
2023-01-11T13:26:52.259Z,-6.81
2023-01-11T13:29:27.324Z,-6.76
2023-01-11T13:32:02.480Z,-6.72
2023-01-11T13:34:43.228Z,-6.77
2023-01-11T13:37:20.761Z,-6.84
2023-01-11T13:40:02.866Z,-6.88
2023-01-11T13:42:41.140Z,-6.90
2023-01-11T13:45:28.360Z,-6.93
2023-01-11T13:48:03.467Z,-6.91
2023-01-11T13:50:47.319Z,-6.85
2023-01-11T13:53:27.849Z,-6.90
2023-01-11T14:11:38.228Z,-6.76
2023-01-11T14:14:20.024Z,-6.77
2023-01-11T14:17:19.058Z,-6.80
2023-01-11T14:20:21.655Z,-6.83
2023-01-11T14:26:46.750Z,-6.79
2023-01-11T14:30:02.136Z,-6.76
2023-01-11T14:33:46.667Z,-6.73
2023-01-11T14:36:41.792Z,-6.74
2023-01-11T14:39:39.352Z,-6.73
2023-01-11T14:42:35.793Z,-6.70
2023-01-11T14:45:28.602Z,-6.71
2023-01-11T14:48:25.286Z,-6.68
2023-01-11T14:51:01.172Z,-6.70
2023-01-11T14:53:42.107Z,-6.66
2023-01-11T14:56:36.960Z,-6.53
2023-01-11T14:59:26.832Z,-6.61
2023-01-11T15:02:07.977Z,-6.61
2023-01-11T15:04:57.984Z,-6.60
2023-01-11T15:07:36.794Z,-6.54
2023-01-11T15:10:31.107Z,-6.56
2023-01-11T15:13:09.337Z,-6.50
2023-01-11T15:15:59.862Z,-6.45
2023-01-11T15:18:33.517Z,-6.50
2023-01-11T15:21:06.931Z,-6.47
2023-01-11T15:23:41.771Z,-6.35
2023-01-11T15:26:16.874Z,-6.44
2023-01-11T15:28:58.322Z,-6.47
2023-01-11T15:31:45.964Z,-6.55
2023-01-11T15:34:30.233Z,-6.64
2023-01-11T15:37:06.905Z,-6.57
2023-01-11T15:39:42.062Z,-6.63
2023-01-11T15:42:45.397Z,-6.72
2023-01-11T15:45:54.105Z,-6.75
2023-01-11T15:48:55.971Z,-6.78
2023-01-11T15:52:11.764Z,-6.81
2023-01-11T15:55:09.386Z,-6.76
2023-01-11T15:58:24.234Z,-6.79
2023-01-11T16:01:31.619Z,-6.79
2023-01-11T16:04:27.015Z,-6.83
2023-01-11T16:07:05.939Z,-6.78
2023-01-11T16:09:56.241Z,-6.76
2023-01-11T16:12:59.155Z,-6.75
2023-01-11T16:15:57.105Z,-6.71
2023-01-11T16:18:33.367Z,-6.73
2023-01-11T16:21:10.993Z,-6.71
2023-01-11T16:23:43.833Z,-6.74
2023-01-11T16:26:21.629Z,-6.74
2023-01-11T16:29:00.482Z,-6.71
2023-01-11T16:32:01.785Z,-6.69
2023-01-11T16:34:43.987Z,-6.65
2023-01-11T16:37:25.933Z,-6.67
2023-01-11T16:40:02.498Z,-6.64
2023-01-11T16:42:38.546Z,-6.70
2023-01-11T16:45:16.828Z,-6.68
2023-01-11T16:48:08.405Z,-6.67
2023-01-11T16:50:43.854Z,-6.64
2023-01-11T16:53:19.042Z,-6.66
2023-01-11T16:56:01.477Z,-6.64
2023-01-11T16:58:37.433Z,-6.62
2023-01-11T17:01:12.578Z,-6.54
2023-01-11T17:03:52.456Z,-6.50
2023-01-11T17:06:28.340Z,-6.47
2023-01-11T17:09:10.915Z,-6.46
2023-01-11T17:11:48.757Z,-6.43
2023-01-11T17:14:58.585Z,-6.40
2023-01-11T17:17:34.087Z,-6.37
2023-01-11T17:20:09.307Z,-6.34
2023-01-11T17:22:44.553Z,-6.33
2023-01-11T17:25:20.121Z,-6.30
2023-01-11T17:27:58.083Z,-6.26
2023-01-11T17:30:31.318Z,-6.24
2023-01-11T17:33:03.895Z,-6.19
2023-01-11T17:35:38.908Z,-6.16
2023-01-11T17:38:14.416Z,-6.06
2023-01-11T17:40:47.262Z,-6.03
2023-01-11T17:43:40.819Z,-5.97
2023-01-11T17:46:24.384Z,-5.95
2023-01-11T17:48:59.580Z,-5.94
2023-01-11T17:51:34.859Z,-5.88
2023-01-11T17:54:07.824Z,-5.91
2023-01-11T17:56:45.691Z,-5.89
2023-01-11T17:59:24.066Z,-5.87
2023-01-11T18:02:02.838Z,-5.88
2023-01-11T18:04:34.949Z,-5.91
2023-01-11T18:07:18.690Z,-5.85
2023-01-11T18:09:53.485Z,-5.89
2023-01-11T18:12:28.695Z,-5.92
2023-01-11T18:15:03.117Z,-5.93
2023-01-11T18:17:39.163Z,-5.91
2023-01-11T18:20:32.610Z,-5.93
2023-01-11T18:23:16.454Z,-5.93
2023-01-11T18:25:49.069Z,-5.98
2023-01-11T18:28:24.039Z,-5.92
2023-01-11T18:31:02.310Z,-5.96
2023-01-11T18:33:35.495Z,-5.97
2023-01-11T18:36:10.650Z,-6.00
2023-01-11T18:38:42.708Z,-6.00
2023-01-11T18:41:34.152Z,-5.98
2023-01-11T18:44:06.172Z,-5.95
2023-01-11T18:46:38.489Z,-5.96
2023-01-11T18:49:12.684Z,-5.95
2023-01-11T18:51:48.031Z,-5.92
2023-01-11T18:54:20.836Z,-5.89
2023-01-11T18:56:52.942Z,-5.87
2023-01-11T18:59:25.169Z,-5.87
2023-01-11T19:02:15.779Z,-5.89
2023-01-11T19:04:34.130Z,-5.89
2023-01-11T19:07:06.316Z,-5.88
2023-01-11T19:09:38.284Z,-5.84
2023-01-11T19:12:10.586Z,-5.89
2023-01-11T19:14:43.110Z,-5.91
2023-01-11T19:17:15.362Z,-5.89
2023-01-11T19:19:47.403Z,-5.91
2023-01-11T19:22:23.269Z,-5.97
2023-01-11T19:24:53.674Z,-5.94
2023-01-11T19:27:25.821Z,-5.93
2023-01-11T19:29:58.366Z,-5.95
2023-01-11T19:32:30.355Z,-5.92
2023-01-11T19:35:02.204Z,-5.90
2023-01-11T19:37:34.314Z,-5.91
2023-01-11T19:40:06.769Z,-5.89
2023-01-11T19:42:40.363Z,-5.98
2023-01-11T19:45:12.368Z,-6.00
2023-01-11T19:47:44.325Z,-6.07
2023-01-11T19:50:17.239Z,-6.10
2023-01-11T19:52:49.653Z,-6.10
2023-01-11T19:55:21.863Z,-6.11
2023-01-11T19:57:53.690Z,-6.13
2023-01-11T20:00:27.024Z,-6.14
2023-01-11T20:03:00.806Z,-6.16
2023-01-11T20:05:32.096Z,-6.17
2023-01-11T20:08:03.654Z,-6.06
2023-01-11T20:10:35.897Z,-6.13
2023-01-11T20:13:07.882Z,-6.22
2023-01-11T20:15:39.894Z,-6.25
2023-01-11T20:18:11.865Z,-6.26
2023-01-11T20:20:43.826Z,-6.27
2023-01-11T20:23:16.060Z,-6.26
2023-01-11T20:25:48.238Z,-6.23
2023-01-11T20:28:20.437Z,-6.13
2023-01-11T20:30:52.495Z,-6.18
2023-01-11T20:33:24.515Z,-6.19
2023-01-11T20:35:56.565Z,-6.17
2023-01-11T20:38:29.161Z,-6.16
2023-01-11T20:41:01.179Z,-6.12
2023-01-11T20:43:33.061Z,-6.12
2023-01-11T20:46:05.105Z,-6.09
2023-01-11T20:48:37.380Z,-6.10
2023-01-11T20:51:09.367Z,-6.01
2023-01-11T20:53:41.579Z,-6.06
2023-01-11T20:56:13.495Z,-6.05
2023-01-11T20:58:47.107Z,-6.01
2023-01-11T21:01:22.083Z,-6.02
2023-01-11T21:03:55.505Z,-6.02
2023-01-11T21:06:28.222Z,-6.00
2023-01-11T21:09:01.754Z,-6.01
2023-01-11T21:11:34.272Z,-6.00
2023-01-11T21:14:08.434Z,-5.98
2023-01-11T21:16:44.419Z,-5.89
2023-01-11T21:19:17.648Z,-5.92
2023-01-11T21:21:49.893Z,-5.97
2023-01-11T21:24:22.171Z,-5.93
2023-01-11T21:26:54.301Z,-5.98
2023-01-11T21:29:26.194Z,-5.98
2023-01-11T21:31:58.205Z,-5.99
2023-01-11T21:34:30.108Z,-6.01
2023-01-11T21:37:02.096Z,-6.00
2023-01-11T21:39:34.233Z,-5.99
2023-01-11T21:42:06.282Z,-6.01
2023-01-11T21:44:38.363Z,-5.99
2023-01-11T21:47:11.532Z,-5.98
2023-01-11T21:49:43.823Z,-5.98
2023-01-11T21:52:15.857Z,-5.97
2023-01-11T21:54:49.409Z,-5.98
2023-01-11T21:57:21.701Z,-5.98
2023-01-11T21:59:53.858Z,-5.96
2023-01-11T22:02:25.744Z,-5.96
2023-01-11T22:04:58.604Z,-5.91
2023-01-11T22:07:33.095Z,-5.88
2023-01-11T22:10:05.780Z,-5.91
2023-01-11T22:12:37.800Z,-5.91
2023-01-11T22:15:10.547Z,-5.83
2023-01-11T22:17:42.659Z,-5.85
2023-01-11T22:20:16.252Z,-5.84
2023-01-11T22:22:48.359Z,-5.83
2023-01-11T22:25:20.322Z,-5.82
2023-01-11T22:27:52.263Z,-5.87
2023-01-11T22:30:24.368Z,-5.87
2023-01-11T22:32:56.347Z,-5.87
2023-01-11T22:35:28.567Z,-5.82
2023-01-11T22:38:00.557Z,-5.82
2023-01-11T22:40:32.634Z,-5.79
2023-01-11T22:43:04.770Z,-5.80
2023-01-11T22:45:36.775Z,-5.75
2023-01-11T22:48:08.839Z,-5.71
2023-01-11T22:50:40.870Z,-5.69
2023-01-11T22:53:13.099Z,-5.74
2023-01-11T22:55:45.495Z,-5.75
2023-01-11T22:58:17.529Z,-5.73
2023-01-11T23:00:50.241Z,-5.70
2023-01-11T23:03:22.278Z,-5.68
2023-01-11T23:05:54.395Z,-5.69
2023-01-11T23:08:26.482Z,-5.68
2023-01-11T23:11:02.037Z,-5.57
2023-01-11T23:13:52.019Z,-5.59
2023-01-11T23:16:24.811Z,-5.60
2023-01-11T23:18:57.094Z,-5.57
2023-01-11T23:21:29.246Z,-5.56
2023-01-11T23:24:03.221Z,-5.57
2023-01-11T23:26:35.592Z,-5.55
2023-01-11T23:29:08.053Z,-5.51
2023-01-11T23:31:40.137Z,-5.50
2023-01-11T23:34:13.336Z,-5.42
2023-01-11T23:36:45.375Z,-5.44
2023-01-11T23:39:21.517Z,-5.41
2023-01-11T23:42:10.959Z,-5.44
2023-01-11T23:44:43.232Z,-5.42
2023-01-11T23:47:25.327Z,-5.36
2023-01-11T23:50:01.098Z,-5.46
2023-01-11T23:52:34.116Z,-5.45
2023-01-11T23:55:06.992Z,-5.48
2023-01-11T23:57:40.553Z,-5.44
